createdAt,value
2023-02-20T00:00:16.736Z,95.34
2023-02-20T00:01:16.712Z,95.03
2023-02-20T00:02:16.784Z,94.52
2023-02-20T00:03:16.742Z,94.31
2023-02-20T00:04:16.702Z,94.31
2023-02-20T00:05:16.669Z,94.27
2023-02-20T00:06:16.664Z,94.42
2023-02-20T00:07:16.662Z,94.42
2023-02-20T00:08:16.666Z,94.10
2023-02-20T00:09:16.679Z,93.59
2023-02-20T00:10:16.609Z,93.59
2023-02-20T00:11:16.601Z,93.69
2023-02-20T00:12:16.619Z,93.49
2023-02-20T00:13:16.588Z,93.18
2023-02-20T00:14:16.577Z,92.86
2023-02-20T00:15:16.591Z,93.79
2023-02-20T00:16:16.620Z,93.59
2023-02-20T00:17:16.531Z,93.69
2023-02-20T00:18:16.532Z,93.49
2023-02-20T00:19:16.535Z,94.00
2023-02-20T00:20:16.517Z,93.59
2023-02-20T00:21:16.626Z,93.59
2023-02-20T00:22:16.482Z,93.38
2023-02-20T00:23:16.485Z,93.38
2023-02-20T00:24:16.488Z,92.97
2023-02-20T00:25:16.478Z,92.86
2023-02-20T00:26:16.450Z,93.18
2023-02-20T00:27:16.434Z,93.07
2023-02-20T00:28:16.447Z,92.76
2023-02-20T00:29:16.404Z,92.86
2023-02-20T00:30:16.443Z,93.07
2023-02-20T00:31:16.537Z,93.28
2023-02-20T00:32:16.691Z,93.28
2023-02-20T00:33:16.356Z,93.59
2023-02-20T00:34:16.349Z,93.38
2023-02-20T00:35:16.343Z,93.59
2023-02-20T00:36:16.347Z,93.38
2023-02-20T00:37:16.357Z,93.79
2023-02-20T00:38:16.323Z,93.69
2023-02-20T00:39:16.294Z,93.07
2023-02-20T00:40:16.304Z,93.49
2023-02-20T00:41:16.331Z,93.18
2023-02-20T00:42:16.283Z,92.97
2023-02-20T00:43:16.255Z,92.86
2023-02-20T00:44:16.246Z,92.76
2023-02-20T00:45:16.261Z,92.66
2023-02-20T00:46:16.551Z,92.35
2023-02-20T00:47:16.231Z,93.07
2023-02-20T00:48:16.223Z,92.76
2023-02-20T00:49:16.191Z,92.35
2023-02-20T00:50:16.185Z,92.66
2023-02-20T00:51:16.158Z,93.07
2023-02-20T00:52:16.149Z,92.35
2023-02-20T00:53:16.162Z,92.35
2023-02-20T00:54:16.127Z,92.04
2023-02-20T00:55:16.137Z,92.35
2023-02-20T00:56:16.143Z,92.25
2023-02-20T00:57:16.099Z,91.83
2023-02-20T00:58:16.109Z,91.94
2023-02-20T00:59:16.076Z,91.83
2023-02-20T01:00:16.064Z,92.46
2023-02-20T01:01:16.070Z,92.14
2023-02-20T01:02:16.070Z,93.07
2023-02-20T01:03:16.052Z,92.35
2023-02-20T01:04:16.019Z,92.25
2023-02-20T01:05:16.012Z,92.35
2023-02-20T01:06:15.999Z,92.46
2023-02-20T01:07:15.981Z,91.73
2023-02-20T01:08:15.997Z,91.63
2023-02-20T01:09:15.963Z,92.14
2023-02-20T01:10:15.967Z,91.83
2023-02-20T01:11:15.938Z,92.35
2023-02-20T01:12:15.954Z,92.14
2023-02-20T01:13:15.953Z,92.35
2023-02-20T01:14:15.901Z,92.35
2023-02-20T01:15:15.908Z,91.52
2023-02-20T01:16:16.023Z,91.42
2023-02-20T01:17:15.872Z,91.94
2023-02-20T01:18:15.862Z,91.73
2023-02-20T01:19:15.893Z,92.04
2023-02-20T01:20:15.844Z,91.83
2023-02-20T01:21:15.824Z,91.42
2023-02-20T01:22:15.859Z,92.25
2023-02-20T01:23:15.816Z,92.55
2023-02-20T01:24:15.813Z,92.14
2023-02-20T01:25:15.972Z,92.55
2023-02-20T01:26:15.769Z,92.97
2023-02-20T01:27:15.784Z,92.97
2023-02-20T01:28:15.757Z,92.76
2023-02-20T01:29:15.749Z,92.76
2023-02-20T01:30:15.768Z,92.76
2023-02-20T01:31:15.836Z,92.55
2023-02-20T01:32:15.733Z,92.55
2023-02-20T01:33:15.725Z,92.76
2023-02-20T01:34:24.282Z,92.76
2023-02-20T01:35:15.726Z,92.55
2023-02-20T01:36:15.706Z,92.35
2023-02-20T01:37:15.693Z,92.35
2023-02-20T01:38:15.641Z,93.07
2023-02-20T01:39:15.637Z,92.76
2023-02-20T01:40:15.956Z,92.91
2023-02-20T01:41:15.642Z,92.29
2023-02-20T01:42:15.602Z,92.25
2023-02-20T01:43:15.597Z,93.01
2023-02-20T01:44:15.600Z,92.60
2023-02-20T01:45:15.585Z,92.80
2023-02-20T01:46:15.599Z,92.86
2023-02-20T01:47:15.590Z,92.70
2023-02-20T01:48:15.526Z,92.66
2023-02-20T01:49:15.526Z,92.70
2023-02-20T01:50:15.518Z,92.40
2023-02-20T01:51:15.506Z,92.91
2023-02-20T01:52:15.543Z,92.76
2023-02-20T01:53:15.536Z,92.86
2023-02-20T01:54:15.472Z,93.12
2023-02-20T01:55:15.540Z,93.38
2023-02-20T01:56:15.449Z,93.12
2023-02-20T01:57:15.440Z,92.91
2023-02-20T01:58:15.458Z,92.86
2023-02-20T01:59:15.413Z,92.97
2023-02-20T02:00:15.422Z,92.04
2023-02-20T02:01:15.407Z,91.94
2023-02-20T02:02:15.479Z,91.83
2023-02-20T02:03:15.391Z,92.25
2023-02-20T02:04:15.392Z,91.01
2023-02-20T02:05:15.349Z,91.22
2023-02-20T02:06:15.405Z,91.94
2023-02-20T02:07:15.480Z,91.94
2023-02-20T02:08:15.314Z,91.83
2023-02-20T02:09:15.303Z,91.94
2023-02-20T02:10:15.305Z,91.63
2023-02-20T02:11:15.334Z,91.73
2023-02-20T02:12:15.292Z,91.52
2023-02-20T02:13:15.252Z,91.73
2023-02-20T02:14:15.262Z,92.04
2023-02-20T02:15:15.267Z,91.63
2023-02-20T02:16:15.531Z,91.94
2023-02-20T02:17:15.206Z,91.94
2023-02-20T02:18:15.204Z,92.04
2023-02-20T02:19:15.216Z,91.73
2023-02-20T02:20:15.193Z,91.73
2023-02-20T02:21:15.272Z,91.94
2023-02-20T02:22:15.157Z,91.63
2023-02-20T02:23:15.154Z,91.94
2023-02-20T02:24:15.157Z,91.73
2023-02-20T02:25:15.126Z,91.73
2023-02-20T02:26:15.185Z,92.55
2023-02-20T02:27:15.148Z,91.94
2023-02-20T02:28:15.074Z,91.56
2023-02-20T02:29:15.155Z,91.42
2023-02-20T02:30:15.095Z,91.94
2023-02-20T02:31:15.160Z,91.63
2023-02-20T02:32:15.107Z,92.25
2023-02-20T02:33:15.032Z,90.91
2023-02-20T02:34:15.021Z,90.59
2023-02-20T02:35:15.009Z,90.95
2023-02-20T02:36:15.005Z,91.05
2023-02-20T02:37:14.994Z,91.01
2023-02-20T02:38:14.981Z,91.22
2023-02-20T02:39:14.953Z,90.84
2023-02-20T02:40:14.959Z,91.26
2023-02-20T02:41:14.951Z,90.64
2023-02-20T02:42:14.926Z,91.01
2023-02-20T02:43:14.926Z,90.84
2023-02-20T02:44:14.894Z,91.16
2023-02-20T02:45:14.911Z,90.95
2023-02-20T02:46:14.986Z,90.74
2023-02-20T02:47:14.893Z,91.46
2023-02-20T02:48:14.866Z,91.20
2023-02-20T02:49:14.852Z,91.50
2023-02-20T02:50:14.866Z,91.67
2023-02-20T02:51:14.830Z,91.61
2023-02-20T02:52:14.813Z,91.46
2023-02-20T02:53:14.828Z,91.67
2023-02-20T02:54:14.804Z,91.77
2023-02-20T02:55:14.796Z,91.77
2023-02-20T02:56:14.801Z,91.56
2023-02-20T02:57:14.769Z,91.09
2023-02-20T02:58:14.766Z,91.26
2023-02-20T02:59:14.737Z,91.05
2023-02-20T03:00:14.756Z,91.36
2023-02-20T03:01:14.783Z,91.61
2023-02-20T03:02:14.742Z,92.08
2023-02-20T03:03:14.700Z,91.92
2023-02-20T03:04:14.698Z,91.26
2023-02-20T03:05:14.680Z,91.46
2023-02-20T03:06:15.052Z,90.84
2023-02-20T03:07:14.673Z,90.84
2023-02-20T03:08:14.636Z,90.89
2023-02-20T03:09:14.630Z,90.68
2023-02-20T03:10:14.635Z,91.26
2023-02-20T03:11:14.658Z,90.99
2023-02-20T03:12:14.618Z,90.53
2023-02-20T03:13:14.574Z,90.64
2023-02-20T03:14:14.566Z,90.68
2023-02-20T03:15:14.572Z,90.74
2023-02-20T03:16:14.910Z,90.95
2023-02-20T03:17:14.579Z,90.74
2023-02-20T03:18:14.535Z,91.05
2023-02-20T03:19:14.533Z,90.74
2023-02-20T03:20:14.513Z,90.95
2023-02-20T03:21:14.532Z,90.95
2023-02-20T03:22:14.503Z,90.64
2023-02-20T03:23:14.499Z,90.74
2023-02-20T03:24:14.497Z,91.16
2023-02-20T03:25:14.462Z,90.64
2023-02-20T03:26:15.180Z,90.95
2023-02-20T03:27:14.452Z,90.74
2023-02-20T03:28:14.451Z,91.05
2023-02-20T03:29:14.486Z,90.95
2023-02-20T03:30:14.442Z,90.89
2023-02-20T03:31:14.545Z,90.84
2023-02-20T03:32:14.424Z,90.84
2023-02-20T03:33:14.378Z,91.16
2023-02-20T03:34:14.368Z,90.26
2023-02-20T03:35:14.385Z,90.84
2023-02-20T03:36:14.626Z,90.84
2023-02-20T03:37:14.356Z,90.02
2023-02-20T03:38:14.331Z,90.53
2023-02-20T03:39:14.310Z,90.33
2023-02-20T03:40:14.304Z,90.43
2023-02-20T03:41:14.295Z,90.12
2023-02-20T03:42:14.343Z,89.95
2023-02-20T03:43:14.316Z,89.86
2023-02-20T03:44:14.330Z,90.02
2023-02-20T03:45:14.238Z,89.92
2023-02-20T03:46:14.678Z,90.02
2023-02-20T03:47:14.224Z,90.53
2023-02-20T03:48:14.196Z,90.78
2023-02-20T03:49:14.313Z,90.89
2023-02-20T03:50:14.237Z,90.53
2023-02-20T03:51:14.182Z,90.43
2023-02-20T03:52:14.171Z,90.47
2023-02-20T03:53:14.189Z,90.43
2023-02-20T03:54:14.242Z,90.43
2023-02-20T03:55:14.153Z,90.53
2023-02-20T03:56:14.393Z,91.20
2023-02-20T03:57:14.154Z,90.95
2023-02-20T03:58:14.134Z,90.68
2023-02-20T03:59:14.127Z,90.78
2023-02-20T04:00:14.063Z,91.61
2023-02-20T04:01:14.210Z,91.50
2023-02-20T04:02:14.093Z,92.13
2023-02-20T04:03:14.053Z,92.02
2023-02-20T04:04:14.020Z,92.33
2023-02-20T04:05:14.010Z,91.40
2023-02-20T04:06:14.403Z,91.50
2023-02-20T04:07:14.056Z,91.30
2023-02-20T04:08:14.047Z,91.20
2023-02-20T04:09:14.002Z,91.40
2023-02-20T04:10:13.962Z,92.02
2023-02-20T04:11:13.946Z,92.13
2023-02-20T04:12:14.072Z,92.07
2023-02-20T04:13:13.919Z,91.86
2023-02-20T04:14:14.029Z,91.34
2023-02-20T04:15:13.896Z,91.44
2023-02-20T04:16:14.359Z,91.44
2023-02-20T04:17:13.899Z,91.44
2023-02-20T04:18:13.998Z,91.75
2023-02-20T04:19:14.022Z,91.34
2023-02-20T04:20:13.948Z,91.71
2023-02-20T04:21:14.022Z,91.96
2023-02-20T04:22:13.846Z,91.55
2023-02-20T04:23:13.915Z,91.40
2023-02-20T04:24:13.823Z,91.75
2023-02-20T04:25:13.955Z,91.13
2023-02-20T04:26:14.159Z,91.24
2023-02-20T04:27:13.814Z,90.83
2023-02-20T04:28:13.795Z,90.89
2023-02-20T04:29:13.768Z,90.93
2023-02-20T04:30:13.841Z,92.02
2023-02-20T04:31:13.978Z,90.93
2023-02-20T04:32:13.704Z,91.75
2023-02-20T04:33:13.708Z,91.55
2023-02-20T04:34:13.709Z,91.03
2023-02-20T04:35:13.743Z,90.93
2023-02-20T04:36:14.034Z,91.13
2023-02-20T04:37:13.668Z,90.83
2023-02-20T04:38:13.682Z,90.52
2023-02-20T04:39:13.636Z,90.78
2023-02-20T04:40:13.624Z,90.52
2023-02-20T04:41:13.623Z,91.34
2023-02-20T04:42:13.828Z,90.41
2023-02-20T04:43:13.625Z,90.72
2023-02-20T04:44:13.574Z,90.72
2023-02-20T04:45:13.571Z,90.62
2023-02-20T04:46:13.930Z,90.72
2023-02-20T04:47:13.566Z,90.52
2023-02-20T04:48:13.536Z,90.31
2023-02-20T04:49:13.531Z,89.89
2023-02-20T04:50:13.541Z,90.31
2023-02-20T04:51:13.542Z,90.31
2023-02-20T04:52:13.497Z,90.31
2023-02-20T04:53:13.506Z,90.52
2023-02-20T04:54:13.465Z,90.31
2023-02-20T04:55:13.446Z,90.31
2023-02-20T04:56:13.750Z,89.89
2023-02-20T04:57:13.493Z,90.31
2023-02-20T04:58:13.442Z,90.41
2023-02-20T04:59:13.451Z,90.20
2023-02-20T05:00:13.407Z,90.62
2023-02-20T05:01:13.403Z,90.10
2023-02-20T05:02:13.389Z,90.31
2023-02-20T05:03:13.364Z,90.52
2023-02-20T05:04:13.380Z,90.20
2023-02-20T05:05:13.437Z,90.41
2023-02-20T05:06:13.709Z,90.52
2023-02-20T05:07:13.370Z,90.00
2023-02-20T05:08:13.306Z,90.52
2023-02-20T05:09:13.306Z,90.52
2023-02-20T05:10:13.310Z,90.52
2023-02-20T05:11:13.281Z,90.31
2023-02-20T05:12:13.298Z,90.20
2023-02-20T05:13:13.313Z,90.00
2023-02-20T05:14:13.256Z,89.48
2023-02-20T05:15:13.273Z,89.48
2023-02-20T05:16:13.589Z,89.59
2023-02-20T05:17:13.245Z,89.38
2023-02-20T05:18:13.209Z,89.48
2023-02-20T05:19:13.182Z,89.34
2023-02-20T05:20:13.225Z,89.28
2023-02-20T05:21:13.203Z,89.59
2023-02-20T05:22:13.189Z,89.69
2023-02-20T05:23:13.160Z,89.59
2023-02-20T05:24:13.136Z,89.28
2023-02-20T05:25:13.109Z,89.69
2023-02-20T05:26:13.476Z,89.89
2023-02-20T05:27:13.102Z,89.59
2023-02-20T05:28:13.167Z,89.28
2023-02-20T05:29:13.100Z,89.69
2023-02-20T05:30:13.098Z,89.38
2023-02-20T05:31:15.003Z,89.59
2023-02-20T05:32:13.117Z,88.96
2023-02-20T05:33:13.058Z,89.28
2023-02-20T05:34:13.088Z,89.38
2023-02-20T05:35:13.072Z,89.42
2023-02-20T05:36:13.302Z,89.38
2023-02-20T05:37:13.069Z,89.94
2023-02-20T05:38:13.019Z,90.25
2023-02-20T05:39:13.015Z,90.35
2023-02-20T05:40:13.073Z,90.14
2023-02-20T05:41:12.951Z,90.56
2023-02-20T05:42:12.939Z,90.87
2023-02-20T05:43:12.921Z,90.00
2023-02-20T05:44:12.952Z,89.94
2023-02-20T05:45:12.912Z,89.69
2023-02-20T05:46:13.226Z,90.62
2023-02-20T05:47:12.879Z,90.62
2023-02-20T05:48:12.875Z,89.94
2023-02-20T05:49:12.855Z,90.31
2023-02-20T05:50:12.884Z,90.56
2023-02-20T05:51:12.875Z,90.31
2023-02-20T05:52:12.923Z,90.35
2023-02-20T05:53:12.823Z,90.35
2023-02-20T05:54:12.824Z,90.04
2023-02-20T05:55:12.824Z,90.87
2023-02-20T05:56:13.161Z,90.77
2023-02-20T05:57:12.780Z,90.66
2023-02-20T05:58:12.753Z,90.66
2023-02-20T05:59:12.805Z,90.87
2023-02-20T06:00:12.732Z,91.07
2023-02-20T06:01:12.729Z,91.28
2023-02-20T06:02:12.754Z,91.17
2023-02-20T06:03:12.753Z,91.07
2023-02-20T06:04:12.762Z,91.07
2023-02-20T06:05:12.697Z,92.00
2023-02-20T06:06:13.007Z,91.69
2023-02-20T06:07:12.711Z,91.59
2023-02-20T06:08:12.644Z,92.00
2023-02-20T06:09:12.670Z,92.00
2023-02-20T06:10:12.646Z,91.49
2023-02-20T06:11:12.621Z,91.69
2023-02-20T06:12:12.643Z,91.59
2023-02-20T06:13:12.591Z,91.49
2023-02-20T06:14:12.616Z,92.00
2023-02-20T06:15:12.600Z,91.28
2023-02-20T06:16:13.072Z,91.38
2023-02-20T06:17:12.545Z,91.59
2023-02-20T06:18:12.569Z,92.11
2023-02-20T06:19:12.538Z,92.11
2023-02-20T06:20:12.527Z,91.80
2023-02-20T06:21:12.502Z,91.90
2023-02-20T06:22:12.515Z,92.32
2023-02-20T06:23:12.514Z,92.42
2023-02-20T06:24:12.490Z,92.63
2023-02-20T06:25:14.172Z,92.63
2023-02-20T06:26:12.856Z,92.63
2023-02-20T06:27:12.473Z,92.42
2023-02-20T06:28:12.428Z,92.42
2023-02-20T06:29:12.442Z,92.32
2023-02-20T06:30:12.507Z,92.48
2023-02-20T06:31:12.475Z,92.17
2023-02-20T06:32:12.452Z,91.96
2023-02-20T06:33:12.401Z,92.32
2023-02-20T06:34:12.367Z,92.11
2023-02-20T06:35:12.386Z,92.21
2023-02-20T06:36:12.649Z,92.72
2023-02-20T06:37:12.372Z,92.63
2023-02-20T06:38:12.338Z,92.38
2023-02-20T06:39:12.370Z,91.96
2023-02-20T06:40:12.351Z,92.07
2023-02-20T06:41:12.383Z,92.32
2023-02-20T06:42:12.276Z,91.86
2023-02-20T06:43:12.329Z,91.90
2023-02-20T06:44:12.265Z,92.79
2023-02-20T06:45:15.231Z,92.48
2023-02-20T06:46:12.556Z,91.86
2023-02-20T06:47:12.232Z,91.86
2023-02-20T06:48:12.232Z,91.86
2023-02-20T06:49:12.218Z,91.86
2023-02-20T06:50:12.188Z,91.82
2023-02-20T06:51:12.270Z,91.96
2023-02-20T06:52:12.189Z,91.92
2023-02-20T06:53:12.171Z,91.82
2023-02-20T06:54:12.177Z,91.40
2023-02-20T06:55:12.156Z,91.61
2023-02-20T06:56:12.424Z,90.89
2023-02-20T06:57:12.135Z,90.99
2023-02-20T06:58:12.125Z,90.99
2023-02-20T06:59:12.190Z,90.68
2023-02-20T07:00:12.154Z,90.99
2023-02-20T07:01:12.124Z,90.78
2023-02-20T07:02:12.085Z,90.58
2023-02-20T07:03:12.036Z,90.99
2023-02-20T07:04:12.055Z,91.09
2023-02-20T07:05:12.073Z,90.99
2023-02-20T07:06:12.350Z,91.20
2023-02-20T07:07:11.996Z,91.20
2023-02-20T07:08:11.997Z,90.99
2023-02-20T07:09:12.025Z,90.89
2023-02-20T07:10:11.980Z,90.99
2023-02-20T07:11:11.978Z,91.20
2023-02-20T07:12:11.953Z,90.74
2023-02-20T07:13:11.931Z,91.05
2023-02-20T07:14:11.945Z,91.20
2023-02-20T07:15:11.938Z,91.20
2023-02-20T07:16:12.300Z,91.05
2023-02-20T07:17:11.901Z,90.89
2023-02-20T07:18:11.908Z,90.84
2023-02-20T07:19:11.863Z,90.78
2023-02-20T07:20:11.874Z,90.95
2023-02-20T07:21:11.864Z,90.89
2023-02-20T07:22:11.834Z,90.89
2023-02-20T07:23:11.892Z,91.16
2023-02-20T07:24:11.810Z,90.68
2023-02-20T07:25:11.810Z,91.36
2023-02-20T07:26:12.183Z,90.95
2023-02-20T07:27:11.782Z,90.74
2023-02-20T07:28:11.773Z,91.16
2023-02-20T07:29:11.765Z,90.84
2023-02-20T07:30:11.769Z,90.70
2023-02-20T07:31:11.781Z,90.70
2023-02-20T07:32:11.794Z,90.95
2023-02-20T07:33:12.037Z,89.98
2023-02-20T07:35:09.610Z,90.39
2023-02-20T07:36:08.726Z,90.59
2023-02-20T07:37:08.689Z,90.80
2023-02-20T07:38:08.676Z,90.39
2023-02-20T07:39:08.669Z,90.59
2023-02-20T07:40:08.685Z,90.28
2023-02-20T07:41:08.677Z,89.98
2023-02-20T07:42:08.645Z,90.19
2023-02-20T07:43:08.630Z,90.19
2023-02-20T07:44:08.614Z,90.59
2023-02-20T07:45:08.616Z,90.59
2023-02-20T07:46:08.721Z,90.59
2023-02-20T07:47:08.570Z,90.59
2023-02-20T07:48:08.566Z,91.11
2023-02-20T07:49:08.572Z,90.80
2023-02-20T07:50:08.561Z,90.08
2023-02-20T07:51:08.552Z,90.14
2023-02-20T07:52:08.520Z,90.08
2023-02-20T07:53:08.568Z,90.49
2023-02-20T07:54:08.507Z,90.66
2023-02-20T07:55:08.492Z,90.14
2023-02-20T07:56:08.950Z,90.35
2023-02-20T07:57:08.485Z,90.25
2023-02-20T07:58:08.474Z,90.35
2023-02-20T07:59:08.503Z,90.35
2023-02-20T08:00:08.445Z,90.10
2023-02-20T08:01:08.452Z,89.83
2023-02-20T08:02:08.424Z,89.79
2023-02-20T08:03:08.392Z,89.94
2023-02-20T08:04:08.381Z,89.07
2023-02-20T08:05:08.426Z,89.38
2023-02-20T08:06:08.367Z,89.38
2023-02-20T08:07:08.356Z,89.48
2023-02-20T08:08:08.366Z,89.17
2023-02-20T08:09:08.336Z,89.38
2023-02-20T08:10:08.317Z,88.65
2023-02-20T08:11:10.165Z,88.96
2023-02-20T08:12:08.320Z,88.62
2023-02-20T08:13:08.301Z,88.62
2023-02-20T08:14:08.286Z,89.17
2023-02-20T08:15:08.259Z,89.28
2023-02-20T08:16:08.293Z,88.76
2023-02-20T08:17:08.286Z,88.82
2023-02-20T08:18:22.118Z,88.96
2023-02-20T08:19:09.300Z,88.72
2023-02-20T08:20:08.216Z,88.92
2023-02-20T08:21:08.249Z,88.72
2023-02-20T08:22:08.186Z,88.20
2023-02-20T08:23:08.194Z,89.13
2023-02-20T08:24:08.167Z,88.72
2023-02-20T08:25:08.185Z,88.62
2023-02-20T08:26:08.138Z,88.82
2023-02-20T08:27:08.144Z,87.96
2023-02-20T08:28:08.118Z,88.06
2023-02-20T08:29:08.103Z,88.17
2023-02-20T08:30:08.185Z,88.17
2023-02-20T08:31:08.219Z,87.34
2023-02-20T08:32:08.145Z,87.75
2023-02-20T08:33:08.058Z,87.19
2023-02-20T08:34:08.059Z,87.92
2023-02-20T08:35:08.049Z,87.71
2023-02-20T08:36:08.041Z,87.67
2023-02-20T08:37:08.007Z,86.88
2023-02-20T08:38:08.028Z,86.37
2023-02-20T08:39:08.105Z,86.43
2023-02-20T08:40:08.206Z,86.54
2023-02-20T08:41:08.009Z,86.54
2023-02-20T08:42:07.955Z,86.43
2023-02-20T08:43:07.972Z,86.74
2023-02-20T08:44:07.927Z,86.74
2023-02-20T08:45:07.922Z,86.60
2023-02-20T08:46:08.102Z,86.64
2023-02-20T08:47:07.900Z,86.40
2023-02-20T08:48:07.911Z,85.88
2023-02-20T08:49:07.920Z,86.40
2023-02-20T08:50:07.864Z,86.50
2023-02-20T08:51:07.856Z,86.40
2023-02-20T08:52:07.844Z,85.63
2023-02-20T08:53:07.849Z,86.60
2023-02-20T08:54:07.820Z,85.36
2023-02-20T08:55:07.813Z,85.88
2023-02-20T08:56:07.804Z,85.16
2023-02-20T08:57:07.782Z,85.26
2023-02-20T08:58:07.816Z,84.85
2023-02-20T08:59:07.775Z,84.95
2023-02-20T09:00:07.794Z,84.95
2023-02-20T09:01:07.765Z,85.68
2023-02-20T09:02:07.773Z,85.22
2023-02-20T09:03:07.746Z,85.12
2023-02-20T09:04:07.721Z,85.68
2023-02-20T09:05:07.693Z,85.26
2023-02-20T09:06:07.684Z,85.26
2023-02-20T09:07:07.679Z,85.06
2023-02-20T09:08:07.690Z,85.06
2023-02-20T09:09:07.684Z,85.02
2023-02-20T09:10:07.709Z,85.26
2023-02-20T09:11:09.783Z,84.95
2023-02-20T09:12:07.613Z,85.16
2023-02-20T09:13:07.606Z,85.26
2023-02-20T09:14:07.934Z,85.22
2023-02-20T09:15:07.581Z,85.26
2023-02-20T09:16:07.583Z,85.33
2023-02-20T09:17:07.565Z,85.12
2023-02-20T09:18:07.586Z,85.02
2023-02-20T09:19:07.551Z,85.57
2023-02-20T09:20:07.524Z,84.71
2023-02-20T09:21:07.529Z,85.33
2023-02-20T09:22:07.504Z,84.50
2023-02-20T09:23:07.528Z,84.81
2023-02-20T09:24:07.501Z,84.81
2023-02-20T09:25:07.510Z,84.61
2023-02-20T09:26:07.513Z,84.91
2023-02-20T09:27:07.475Z,84.09
2023-02-20T09:28:07.453Z,84.61
2023-02-20T09:29:07.443Z,84.40
2023-02-20T09:30:07.490Z,84.61
2023-02-20T09:31:07.430Z,84.71
2023-02-20T09:32:07.536Z,85.02
2023-02-20T09:33:07.410Z,85.02
2023-02-20T09:34:07.397Z,84.71
2023-02-20T09:35:07.356Z,84.36
2023-02-20T09:36:07.353Z,84.56
2023-02-20T09:37:07.364Z,84.26
2023-02-20T09:38:07.337Z,84.53
2023-02-20T09:39:07.314Z,83.95
2023-02-20T09:40:07.306Z,83.23
2023-02-20T09:41:07.309Z,83.91
2023-02-20T09:42:07.285Z,84.01
2023-02-20T09:43:07.290Z,84.22
2023-02-20T09:44:07.284Z,84.01
2023-02-20T09:45:07.250Z,84.01
2023-02-20T09:46:07.353Z,83.05
2023-02-20T09:47:07.224Z,83.05
2023-02-20T09:48:07.238Z,82.95
2023-02-20T09:49:07.200Z,82.75
2023-02-20T09:50:07.210Z,83.22
2023-02-20T09:51:07.210Z,83.12
2023-02-20T09:52:07.168Z,83.01
2023-02-20T09:53:07.144Z,81.88
2023-02-20T09:54:07.150Z,81.92
2023-02-20T09:55:07.137Z,81.99
2023-02-20T09:56:07.149Z,82.19
2023-02-20T09:57:07.112Z,81.85
2023-02-20T09:58:07.133Z,81.34
2023-02-20T09:59:07.100Z,81.74
2023-02-20T10:00:07.136Z,80.92
2023-02-20T10:01:07.073Z,81.60
2023-02-20T10:02:07.191Z,81.43
2023-02-20T10:03:07.162Z,81.29
2023-02-20T10:04:07.065Z,80.68
2023-02-20T10:05:07.026Z,81.05
2023-02-20T10:06:07.040Z,80.44
2023-02-20T10:07:06.997Z,80.54
2023-02-20T10:08:06.983Z,80.40
2023-02-20T10:09:06.997Z,79.79
2023-02-20T10:10:06.978Z,79.79
2023-02-20T10:11:07.334Z,79.07
2023-02-20T10:12:06.943Z,79.27
2023-02-20T10:13:06.926Z,79.68
2023-02-20T10:14:06.918Z,79.68
2023-02-20T10:15:06.978Z,79.89
2023-02-20T10:16:06.946Z,79.48
2023-02-20T10:17:06.906Z,79.27
2023-02-20T10:18:06.903Z,79.79
2023-02-20T10:19:06.874Z,78.97
2023-02-20T10:20:06.872Z,79.58
2023-02-20T10:21:06.840Z,79.96
2023-02-20T10:22:06.849Z,79.38
2023-02-20T10:23:06.834Z,79.17
2023-02-20T10:24:06.813Z,79.75
2023-02-20T10:25:06.797Z,79.64
2023-02-20T10:26:06.810Z,79.24
2023-02-20T10:27:06.778Z,79.30
2023-02-20T10:28:06.764Z,78.38
2023-02-20T10:29:06.788Z,78.49
2023-02-20T10:30:06.867Z,78.69
2023-02-20T10:31:06.764Z,78.28
2023-02-20T10:32:06.833Z,78.11
2023-02-20T10:33:06.704Z,78.52
2023-02-20T10:34:06.697Z,78.83
2023-02-20T10:35:06.709Z,78.52
2023-02-20T10:36:06.697Z,78.72
2023-02-20T10:37:06.657Z,78.52
2023-02-20T10:38:06.690Z,79.13
2023-02-20T10:39:06.734Z,78.35
2023-02-20T10:40:06.651Z,78.72
2023-02-20T10:41:06.609Z,78.42
2023-02-20T10:42:06.603Z,78.63
2023-02-20T10:43:06.589Z,78.83
2023-02-20T10:44:06.590Z,78.83
2023-02-20T10:45:06.586Z,78.17
2023-02-20T10:46:06.594Z,78.38
2023-02-20T10:47:06.545Z,77.97
2023-02-20T10:48:06.553Z,78.01
2023-02-20T10:49:06.540Z,78.63
2023-02-20T10:50:06.511Z,79.20
2023-02-20T10:51:06.551Z,78.69
2023-02-20T10:52:06.493Z,78.96
2023-02-20T10:53:06.478Z,78.65
2023-02-20T10:54:06.488Z,78.14
2023-02-20T10:55:06.467Z,77.94
2023-02-20T10:56:06.470Z,78.14
2023-02-20T10:57:06.430Z,77.22
2023-02-20T10:58:06.465Z,77.19
2023-02-20T10:59:06.403Z,77.80
2023-02-20T11:00:06.938Z,77.80
2023-02-20T11:01:06.505Z,77.08
2023-02-20T11:02:06.564Z,78.20
2023-02-20T11:03:06.375Z,76.64
2023-02-20T11:04:06.413Z,76.33
2023-02-20T11:05:06.335Z,75.96
2023-02-20T11:06:06.341Z,75.41
2023-02-20T11:07:06.458Z,76.26
2023-02-20T11:08:06.309Z,76.12
2023-02-20T11:09:06.304Z,75.71
2023-02-20T11:10:06.329Z,76.40
2023-02-20T11:11:06.332Z,75.89
2023-02-20T11:12:06.308Z,76.60
2023-02-20T11:13:06.249Z,75.99
2023-02-20T11:14:06.284Z,76.12
2023-02-20T11:15:06.456Z,75.92
2023-02-20T11:16:06.240Z,75.58
2023-02-20T11:17:06.201Z,75.68
2023-02-20T11:18:06.244Z,75.78
2023-02-20T11:19:06.285Z,75.82
2023-02-20T11:20:06.185Z,75.78
2023-02-20T11:21:06.168Z,75.82
2023-02-20T11:22:07.222Z,76.12
2023-02-20T11:23:06.143Z,76.23
2023-02-20T11:24:06.124Z,75.62
2023-02-20T11:25:06.132Z,76.03
2023-02-20T11:26:06.151Z,75.92
2023-02-20T11:27:06.095Z,76.19
2023-02-20T11:28:06.096Z,76.09
2023-02-20T11:29:06.116Z,75.68
2023-02-20T11:30:06.146Z,76.06
2023-02-20T11:31:06.090Z,75.75
2023-02-20T11:32:06.130Z,75.34
2023-02-20T11:33:06.049Z,74.79
2023-02-20T11:34:06.030Z,74.79
2023-02-20T11:35:06.017Z,75.71
2023-02-20T11:36:06.004Z,75.92
2023-02-20T11:37:05.974Z,74.69
2023-02-20T11:38:05.971Z,73.84
2023-02-20T11:39:05.964Z,74.66
2023-02-20T11:40:05.967Z,74.86
2023-02-20T11:41:05.929Z,74.86
2023-02-20T11:42:05.940Z,74.76
2023-02-20T11:43:05.911Z,74.45
2023-02-20T11:44:05.892Z,73.81
2023-02-20T11:45:05.921Z,73.36
2023-02-20T11:46:05.895Z,73.88
2023-02-20T11:47:05.873Z,72.96
2023-02-20T11:48:05.865Z,73.19
2023-02-20T11:49:05.841Z,72.69
2023-02-20T11:50:18.368Z,72.92
2023-02-20T11:51:06.817Z,73.43
2023-02-20T11:52:05.809Z,74.45
2023-02-20T11:53:05.793Z,74.45
2023-02-20T11:54:05.812Z,74.42
2023-02-20T11:55:05.777Z,74.69
2023-02-20T11:56:05.775Z,73.54
2023-02-20T11:57:05.793Z,73.80
2023-02-20T11:58:05.754Z,73.40
2023-02-20T11:59:05.749Z,72.69
2023-02-20T12:00:05.710Z,72.78
2023-02-20T12:01:05.700Z,73.10
2023-02-20T12:02:05.690Z,72.78
2023-02-20T12:03:05.675Z,72.52
2023-02-20T12:04:05.722Z,72.72
2023-02-20T12:05:05.714Z,73.02
2023-02-20T12:06:05.787Z,72.96
2023-02-20T12:07:05.635Z,73.57
2023-02-20T12:08:05.642Z,73.97
2023-02-20T12:09:05.607Z,73.02
2023-02-20T12:10:05.616Z,73.74
2023-02-20T12:11:05.583Z,73.36
2023-02-20T12:12:05.573Z,72.82
2023-02-20T12:13:05.608Z,73.06
2023-02-20T12:14:05.568Z,73.47
2023-02-20T12:15:05.540Z,73.19
2023-02-20T12:16:05.649Z,74.11
2023-02-20T12:17:05.523Z,74.38
2023-02-20T12:18:05.536Z,74.69
2023-02-20T12:19:06.416Z,74.18
2023-02-20T12:20:05.485Z,74.01
2023-02-20T12:21:05.500Z,74.11
2023-02-20T12:22:05.460Z,73.91
2023-02-20T12:23:05.505Z,74.73
2023-02-20T12:24:05.440Z,75.95
2023-02-20T12:25:05.427Z,75.10
2023-02-20T12:26:05.490Z,74.79
2023-02-20T12:27:05.418Z,75.71
2023-02-20T12:28:05.398Z,74.28
2023-02-20T12:29:05.445Z,74.96
2023-02-20T12:30:05.484Z,74.38
2023-02-20T12:31:06.043Z,73.88
2023-02-20T12:32:05.468Z,74.79
2023-02-20T12:33:05.461Z,74.49
2023-02-20T12:34:05.377Z,75.60
2023-02-20T12:35:06.929Z,74.83
2023-02-20T12:36:05.326Z,75.74
2023-02-20T12:37:05.468Z,75.74
2023-02-20T12:38:05.293Z,76.05
2023-02-20T12:39:05.526Z,75.40
2023-02-20T12:40:05.276Z,75.92
2023-02-20T12:41:05.249Z,75.92
2023-02-20T12:42:05.265Z,76.32
2023-02-20T12:43:05.254Z,76.01
2023-02-20T12:44:13.259Z,75.60
2023-02-20T12:45:06.211Z,75.60
2023-02-20T12:46:05.207Z,75.51
2023-02-20T12:47:05.207Z,75.10
2023-02-20T12:48:05.192Z,75.92
2023-02-20T12:49:05.152Z,76.53
2023-02-20T12:50:05.159Z,76.32
2023-02-20T12:51:05.164Z,76.05
2023-02-20T12:52:05.138Z,76.46
2023-02-20T12:53:05.140Z,76.97